sensor_id;sensor_type;location;lat;lon;timestamp;pressure;altitude;pressure_sealevel;temperature;humidity
72465;BME280;60471;52.150;4.508;2023-04-28T00:00:09;101132.13;;;11.99;47.30
72465;BME280;60471;52.150;4.508;2023-04-28T00:02:36;101127.00;;;11.96;47.91
72465;BME280;60471;52.150;4.508;2023-04-28T00:05:03;101132.50;;;11.92;48.20
72465;BME280;60471;52.150;4.508;2023-04-28T00:07:31;101114.88;;;12.09;47.88
72465;BME280;60471;52.150;4.508;2023-04-28T00:09:57;101117.22;;;11.98;48.54
72465;BME280;60471;52.150;4.508;2023-04-28T00:12:23;101123.84;;;12.07;48.84
72465;BME280;60471;52.150;4.508;2023-04-28T00:14:49;101114.25;;;12.04;49.41
72465;BME280;60471;52.150;4.508;2023-04-28T00:17:16;101108.09;;;12.04;49.34
72465;BME280;60471;52.150;4.508;2023-04-28T00:19:42;101109.97;;;12.02;49.24
72465;BME280;60471;52.150;4.508;2023-04-28T00:22:08;101107.78;;;11.93;49.38
72465;BME280;60471;52.150;4.508;2023-04-28T00:24:34;101100.31;;;11.83;49.66
72465;BME280;60471;52.150;4.508;2023-04-28T00:27:01;101102.50;;;11.74;50.04
72465;BME280;60471;52.150;4.508;2023-04-28T00:29:28;101098.72;;;11.79;49.66
72465;BME280;60471;52.150;4.508;2023-04-28T00:31:54;101087.78;;;11.87;50.10
72465;BME280;60471;52.150;4.508;2023-04-28T00:34:21;101076.66;;;11.80;50.23
72465;BME280;60471;52.150;4.508;2023-04-28T00:36:47;101074.97;;;11.78;50.34
72465;BME280;60471;52.150;4.508;2023-04-28T00:39:14;101069.97;;;11.72;50.36
72465;BME280;60471;52.150;4.508;2023-04-28T00:41:41;101059.81;;;11.64;50.61
72465;BME280;60471;52.150;4.508;2023-04-28T00:44:07;101059.66;;;11.67;50.30
72465;BME280;60471;52.150;4.508;2023-04-28T00:46:33;101055.91;;;11.71;50.15
72465;BME280;60471;52.150;4.508;2023-04-28T00:49:00;101060.66;;;11.65;50.42
72465;BME280;60471;52.150;4.508;2023-04-28T00:51:28;101056.06;;;11.68;50.83
72465;BME280;60471;52.150;4.508;2023-04-28T00:53:55;101055.63;;;11.77;50.74
72465;BME280;60471;52.150;4.508;2023-04-28T00:56:22;101047.94;;;11.73;50.58
72465;BME280;60471;52.150;4.508;2023-04-28T00:58:48;101045.97;;;11.76;50.63
72465;BME280;60471;52.150;4.508;2023-04-28T01:01:14;101031.69;;;11.80;50.62
72465;BME280;60471;52.150;4.508;2023-04-28T01:03:40;101036.91;;;11.82;50.51
72465;BME280;60471;52.150;4.508;2023-04-28T01:06:08;101029.06;;;11.80;50.64
72465;BME280;60471;52.150;4.508;2023-04-28T01:08:35;101029.09;;;11.79;50.58
72465;BME280;60471;52.150;4.508;2023-04-28T01:11:03;101028.84;;;11.85;50.58
72465;BME280;60471;52.150;4.508;2023-04-28T01:13:29;101028.13;;;11.81;50.63
72465;BME280;60471;52.150;4.508;2023-04-28T01:15:55;101028.84;;;11.85;50.38
72465;BME280;60471;52.150;4.508;2023-04-28T01:18:22;101023.31;;;11.89;50.36
72465;BME280;60471;52.150;4.508;2023-04-28T01:20:49;101026.03;;;11.88;50.73
72465;BME280;60471;52.150;4.508;2023-04-28T01:23:16;101016.88;;;11.95;50.61
72465;BME280;60471;52.150;4.508;2023-04-28T01:25:43;101008.56;;;11.85;51.08
72465;BME280;60471;52.150;4.508;2023-04-28T01:28:10;101012.25;;;11.81;50.70
72465;BME280;60471;52.150;4.508;2023-04-28T01:30:36;101003.13;;;11.70;51.21
72465;BME280;60471;52.150;4.508;2023-04-28T01:33:03;101004.25;;;11.83;50.94
72465;BME280;60471;52.150;4.508;2023-04-28T01:35:29;101003.75;;;11.75;50.72
72465;BME280;60471;52.150;4.508;2023-04-28T01:37:55;100994.56;;;11.83;50.66
72465;BME280;60471;52.150;4.508;2023-04-28T01:40:22;100995.84;;;11.75;50.74
72465;BME280;60471;52.150;4.508;2023-04-28T01:42:48;100992.91;;;11.81;50.70
72465;BME280;60471;52.150;4.508;2023-04-28T01:45:14;100989.53;;;11.77;50.76
72465;BME280;60471;52.150;4.508;2023-04-28T01:47:41;100990.91;;;11.86;50.91
72465;BME280;60471;52.150;4.508;2023-04-28T01:50:07;100985.91;;;11.80;50.83
72465;BME280;60471;52.150;4.508;2023-04-28T01:52:33;100982.09;;;11.85;50.42
72465;BME280;60471;52.150;4.508;2023-04-28T01:55:00;100974.00;;;11.88;50.65
72465;BME280;60471;52.150;4.508;2023-04-28T01:57:26;100974.78;;;11.90;50.68
72465;BME280;60471;52.150;4.508;2023-04-28T01:59:54;100972.13;;;11.90;50.68
72465;BME280;60471;52.150;4.508;2023-04-28T02:02:20;100968.03;;;11.85;50.48
72465;BME280;60471;52.150;4.508;2023-04-28T02:04:46;100970.50;;;11.88;49.87
72465;BME280;60471;52.150;4.508;2023-04-28T02:07:12;100965.81;;;11.76;50.60
72465;BME280;60471;52.150;4.508;2023-04-28T02:09:39;100955.88;;;11.81;50.46
72465;BME280;60471;52.150;4.508;2023-04-28T02:12:05;100937.00;;;11.88;50.44
72465;BME280;60471;52.150;4.508;2023-04-28T02:14:31;100935.38;;;11.86;50.37
72465;BME280;60471;52.150;4.508;2023-04-28T02:16:57;100928.72;;;11.77;50.97
72465;BME280;60471;52.150;4.508;2023-04-28T02:19:24;100932.69;;;11.69;50.87
72465;BME280;60471;52.150;4.508;2023-04-28T02:21:50;100935.81;;;11.77;50.31
72465;BME280;60471;52.150;4.508;2023-04-28T02:24:16;100936.06;;;11.72;50.92
72465;BME280;60471;52.150;4.508;2023-04-28T02:26:42;100923.31;;;11.63;50.85
72465;BME280;60471;52.150;4.508;2023-04-28T02:29:09;100926.16;;;11.76;50.92
72465;BME280;60471;52.150;4.508;2023-04-28T02:31:35;100920.66;;;11.80;50.94
72465;BME280;60471;52.150;4.508;2023-04-28T02:34:01;100913.16;;;11.71;51.39
72465;BME280;60471;52.150;4.508;2023-04-28T02:36:27;100914.28;;;11.67;51.70
72465;BME280;60471;52.150;4.508;2023-04-28T02:38:53;100920.31;;;11.69;51.43
72465;BME280;60471;52.150;4.508;2023-04-28T02:41:20;100915.75;;;11.73;51.24
72465;BME280;60471;52.150;4.508;2023-04-28T02:43:46;100918.47;;;11.54;51.94
72465;BME280;60471;52.150;4.508;2023-04-28T02:46:12;100932.28;;;11.59;52.35
72465;BME280;60471;52.150;4.508;2023-04-28T02:48:38;100922.03;;;11.70;51.97
72465;BME280;60471;52.150;4.508;2023-04-28T02:51:05;100911.94;;;11.61;51.90
72465;BME280;60471;52.150;4.508;2023-04-28T02:53:31;100910.53;;;11.71;51.72
72465;BME280;60471;52.150;4.508;2023-04-28T02:55:58;100897.31;;;11.71;51.72
72465;BME280;60471;52.150;4.508;2023-04-28T02:58:24;100894.63;;;11.73;51.64
72465;BME280;60471;52.150;4.508;2023-04-28T03:00:50;100888.47;;;11.72;51.76
72465;BME280;60471;52.150;4.508;2023-04-28T03:03:16;100898.41;;;11.67;52.20
72465;BME280;60471;52.150;4.508;2023-04-28T03:05:42;100890.22;;;11.72;51.91
72465;BME280;60471;52.150;4.508;2023-04-28T03:08:09;100885.44;;;11.63;51.82
72465;BME280;60471;52.150;4.508;2023-04-28T03:10:35;100884.25;;;11.68;51.83
72465;BME280;60471;52.150;4.508;2023-04-28T03:13:01;100881.31;;;11.57;51.97
72465;BME280;60471;52.150;4.508;2023-04-28T03:15:27;100872.47;;;11.41;52.77
72465;BME280;60471;52.150;4.508;2023-04-28T03:17:54;100865.16;;;11.46;52.41
72465;BME280;60471;52.150;4.508;2023-04-28T03:20:20;100862.75;;;11.41;52.90
72465;BME280;60471;52.150;4.508;2023-04-28T03:22:46;100864.56;;;11.41;52.88
72465;BME280;60471;52.150;4.508;2023-04-28T03:25:12;100860.72;;;11.46;52.73
72465;BME280;60471;52.150;4.508;2023-04-28T03:27:38;100852.50;;;11.52;52.85
72465;BME280;60471;52.150;4.508;2023-04-28T03:30:05;100847.59;;;11.45;53.08
72465;BME280;60471;52.150;4.508;2023-04-28T03:32:32;100847.97;;;11.54;52.47
72465;BME280;60471;52.150;4.508;2023-04-28T03:34:59;100838.72;;;11.46;52.29
72465;BME280;60471;52.150;4.508;2023-04-28T03:37:25;100834.69;;;11.39;52.32
72465;BME280;60471;52.150;4.508;2023-04-28T03:39:52;100839.38;;;11.33;52.82
72465;BME280;60471;52.150;4.508;2023-04-28T03:42:18;100840.22;;;11.34;51.86
72465;BME280;60471;52.150;4.508;2023-04-28T03:44:44;100833.09;;;11.19;51.87
72465;BME280;60471;52.150;4.508;2023-04-28T03:47:10;100838.03;;;11.25;51.51
72465;BME280;60471;52.150;4.508;2023-04-28T03:49:36;100838.03;;;11.25;50.93
72465;BME280;60471;52.150;4.508;2023-04-28T03:52:03;100838.38;;;11.19;50.55
72465;BME280;60471;52.150;4.508;2023-04-28T03:54:29;100835.19;;;11.29;50.13
72465;BME280;60471;52.150;4.508;2023-04-28T03:56:56;100828.25;;;11.10;50.17
72465;BME280;60471;52.150;4.508;2023-04-28T03:59:23;100829.19;;;11.09;50.37
72465;BME280;60471;52.150;4.508;2023-04-28T04:01:49;100826.56;;;11.09;50.65
72465;BME280;60471;52.150;4.508;2023-04-28T04:04:15;100822.13;;;11.09;50.98
72465;BME280;60471;52.150;4.508;2023-04-28T04:06:41;100811.72;;;11.23;50.81
72465;BME280;60471;52.150;4.508;2023-04-28T04:09:08;100808.25;;;11.39;51.16
72465;BME280;60471;52.150;4.508;2023-04-28T04:11:34;100808.03;;;11.26;51.06
72465;BME280;60471;52.150;4.508;2023-04-28T04:14:00;100810.47;;;11.30;51.04
72465;BME280;60471;52.150;4.508;2023-04-28T04:16:26;100820.78;;;11.35;51.09
72465;BME280;60471;52.150;4.508;2023-04-28T04:18:54;100823.50;;;11.16;51.69
72465;BME280;60471;52.150;4.508;2023-04-28T04:21:20;100821.41;;;11.23;52.26
72465;BME280;60471;52.150;4.508;2023-04-28T04:23:46;100820.63;;;11.38;51.70
72465;BME280;60471;52.150;4.508;2023-04-28T04:26:12;100821.13;;;11.29;51.48
72465;BME280;60471;52.150;4.508;2023-04-28T04:28:39;100827.38;;;11.44;52.41
72465;BME280;60471;52.150;4.508;2023-04-28T04:31:05;100842.00;;;11.33;52.52
72465;BME280;60471;52.150;4.508;2023-04-28T04:33:31;100832.84;;;11.23;52.77
72465;BME280;60471;52.150;4.508;2023-04-28T04:35:59;100833.38;;;11.13;53.08
72465;BME280;60471;52.150;4.508;2023-04-28T04:38:25;100838.59;;;11.31;53.15
72465;BME280;60471;52.150;4.508;2023-04-28T04:40:52;100838.69;;;11.30;53.47
72465;BME280;60471;52.150;4.508;2023-04-28T04:43:18;100832.13;;;11.54;53.12
72465;BME280;60471;52.150;4.508;2023-04-28T04:45:44;100833.19;;;11.50;53.70
72465;BME280;60471;52.150;4.508;2023-04-28T04:48:10;100827.78;;;11.53;54.37
72465;BME280;60471;52.150;4.508;2023-04-28T04:50:37;100828.84;;;11.49;55.25
72465;BME280;60471;52.150;4.508;2023-04-28T04:53:03;100822.03;;;11.45;55.99
72465;BME280;60471;52.150;4.508;2023-04-28T04:55:29;100814.00;;;11.47;57.37
72465;BME280;60471;52.150;4.508;2023-04-28T04:57:55;100789.63;;;11.42;58.35
72465;BME280;60471;52.150;4.508;2023-04-28T05:00:22;100770.94;;;11.29;58.76
72465;BME280;60471;52.150;4.508;2023-04-28T05:02:48;100767.19;;;11.16;59.38
72465;BME280;60471;52.150;4.508;2023-04-28T05:05:14;100764.72;;;11.13;60.11
72465;BME280;60471;52.150;4.508;2023-04-28T05:07:40;100768.91;;;11.17;60.60
72465;BME280;60471;52.150;4.508;2023-04-28T05:10:08;100771.09;;;11.09;60.48
72465;BME280;60471;52.150;4.508;2023-04-28T05:12:36;100766.50;;;10.95;60.83
72465;BME280;60471;52.150;4.508;2023-04-28T05:15:04;100764.50;;;11.00;60.84
72465;BME280;60471;52.150;4.508;2023-04-28T05:17:32;100757.97;;;10.90;60.97
72465;BME280;60471;52.150;4.508;2023-04-28T05:19:59;100764.47;;;10.83;60.81
72465;BME280;60471;52.150;4.508;2023-04-28T05:22:25;100756.41;;;10.68;60.85
72465;BME280;60471;52.150;4.508;2023-04-28T05:24:51;100746.50;;;10.37;61.60
72465;BME280;60471;52.150;4.508;2023-04-28T05:27:18;100739.44;;;10.38;61.30
72465;BME280;60471;52.150;4.508;2023-04-28T05:29:44;100740.81;;;10.28;61.59
72465;BME280;60471;52.150;4.508;2023-04-28T05:32:10;100755.31;;;10.17;61.75
72465;BME280;60471;52.150;4.508;2023-04-28T05:34:36;100752.56;;;10.21;61.40
72465;BME280;60471;52.150;4.508;2023-04-28T05:37:02;100748.72;;;10.28;61.79
72465;BME280;60471;52.150;4.508;2023-04-28T05:39:29;100755.94;;;10.24;61.70
72465;BME280;60471;52.150;4.508;2023-04-28T05:41:55;100763.25;;;10.36;61.46
72465;BME280;60471;52.150;4.508;2023-04-28T05:44:23;100757.78;;;10.58;61.83
72465;BME280;60471;52.150;4.508;2023-04-28T05:46:50;100771.53;;;10.65;61.29
72465;BME280;60471;52.150;4.508;2023-04-28T05:49:16;100773.31;;;10.64;61.80
72465;BME280;60471;52.150;4.508;2023-04-28T05:51:42;100770.19;;;10.56;62.26
72465;BME280;60471;52.150;4.508;2023-04-28T05:54:09;100777.38;;;10.53;62.53
72465;BME280;60471;52.150;4.508;2023-04-28T05:56:35;100766.97;;;10.68;62.22
72465;BME280;60471;52.150;4.508;2023-04-28T05:59:02;100766.03;;;10.69;62.41
72465;BME280;60471;52.150;4.508;2023-04-28T06:01:30;100769.59;;;10.68;62.68
72465;BME280;60471;52.150;4.508;2023-04-28T06:03:57;100767.19;;;10.64;63.30
72465;BME280;60471;52.150;4.508;2023-04-28T06:06:26;100772.06;;;10.71;63.05
72465;BME280;60471;52.150;4.508;2023-04-28T06:08:52;100766.66;;;10.92;62.80
72465;BME280;60471;52.150;4.508;2023-04-28T06:11:18;100763.72;;;10.98;62.66
72465;BME280;60471;52.150;4.508;2023-04-28T06:13:48;100759.97;;;11.19;62.75
72465;BME280;60471;52.150;4.508;2023-04-28T06:16:16;100767.59;;;11.08;63.26
72465;BME280;60471;52.150;4.508;2023-04-28T06:18:42;100757.00;;;11.43;62.24
72465;BME280;60471;52.150;4.508;2023-04-28T06:21:09;100751.53;;;11.46;62.57
72465;BME280;60471;52.150;4.508;2023-04-28T06:23:35;100749.38;;;11.37;62.89
72465;BME280;60471;52.150;4.508;2023-04-28T06:26:03;100756.41;;;11.20;63.91
72465;BME280;60471;52.150;4.508;2023-04-28T06:28:29;100753.78;;;11.20;64.34
72465;BME280;60471;52.150;4.508;2023-04-28T06:30:56;100743.28;;;11.01;64.97
72465;BME280;60471;52.150;4.508;2023-04-28T06:33:22;100735.19;;;11.04;66.10
72465;BME280;60471;52.150;4.508;2023-04-28T06:35:48;100743.97;;;11.40;65.27
72465;BME280;60471;52.150;4.508;2023-04-28T06:38:14;100741.22;;;11.74;64.05
72465;BME280;60471;52.150;4.508;2023-04-28T06:40:41;100743.31;;;11.85;64.48
72465;BME280;60471;52.150;4.508;2023-04-28T06:43:07;100739.47;;;12.06;63.92
72465;BME280;60471;52.150;4.508;2023-04-28T06:45:33;100738.34;;;12.10;63.56
72465;BME280;60471;52.150;4.508;2023-04-28T06:47:59;100742.09;;;11.90;64.25
72465;BME280;60471;52.150;4.508;2023-04-28T06:50:25;100755.00;;;11.97;64.17
72465;BME280;60471;52.150;4.508;2023-04-28T06:52:52;100746.47;;;12.07;63.93
72465;BME280;60471;52.150;4.508;2023-04-28T06:55:18;100739.56;;;11.72;64.94
72465;BME280;60471;52.150;4.508;2023-04-28T06:57:44;100739.34;;;11.76;65.39
72465;BME280;60471;52.150;4.508;2023-04-28T07:00:12;100745.41;;;11.45;66.25
72465;BME280;60471;52.150;4.508;2023-04-28T07:02:39;100742.38;;;11.36;67.39
72465;BME280;60471;52.150;4.508;2023-04-28T07:05:05;100744.00;;;11.38;67.73
72465;BME280;60471;52.150;4.508;2023-04-28T07:07:32;100741.38;;;11.38;68.07
72465;BME280;60471;52.150;4.508;2023-04-28T07:09:58;100743.81;;;11.25;68.51
72465;BME280;60471;52.150;4.508;2023-04-28T07:12:26;100746.44;;;11.25;68.67
72465;BME280;60471;52.150;4.508;2023-04-28T07:14:53;100749.34;;;11.21;68.92
72465;BME280;60471;52.150;4.508;2023-04-28T07:17:20;100755.47;;;11.04;69.63
72465;BME280;60471;52.150;4.508;2023-04-28T07:19:46;100755.56;;;11.02;70.10
72465;BME280;60471;52.150;4.508;2023-04-28T07:22:14;100749.72;;;10.96;70.60
72465;BME280;60471;52.150;4.508;2023-04-28T07:24:41;100745.38;;;10.95;71.64
72465;BME280;60471;52.150;4.508;2023-04-28T07:27:07;100749.72;;;10.96;71.78
72465;BME280;60471;52.150;4.508;2023-04-28T07:29:33;100743.75;;;11.10;71.62
72465;BME280;60471;52.150;4.508;2023-04-28T07:32:00;100744.31;;;10.99;72.54
72465;BME280;60471;52.150;4.508;2023-04-28T07:34:29;100748.81;;;10.97;72.85
72465;BME280;60471;52.150;4.508;2023-04-28T07:36:56;100747.81;;;10.99;73.47
72465;BME280;60471;52.150;4.508;2023-04-28T07:39:23;100746.78;;;11.02;73.81
72465;BME280;60471;52.150;4.508;2023-04-28T07:41:49;100746.19;;;10.97;74.18
72465;BME280;60471;52.150;4.508;2023-04-28T07:44:15;100742.06;;;11.09;74.49
72465;BME280;60471;52.150;4.508;2023-04-28T07:46:42;100744.19;;;11.18;75.27
72465;BME280;60471;52.150;4.508;2023-04-28T07:49:08;100739.09;;;11.48;73.76
72465;BME280;60471;52.150;4.508;2023-04-28T07:51:34;100732.78;;;11.50;73.97
72465;BME280;60471;52.150;4.508;2023-04-28T07:54:01;100730.69;;;11.57;74.28
72465;BME280;60471;52.150;4.508;2023-04-28T07:56:27;100738.97;;;11.67;74.10
72465;BME280;60471;52.150;4.508;2023-04-28T07:58:53;100733.09;;;11.77;73.65
72465;BME280;60471;52.150;4.508;2023-04-28T08:01:19;100739.34;;;11.76;74.27
72465;BME280;60471;52.150;4.508;2023-04-28T08:03:46;100736.59;;;11.78;74.85
72465;BME280;60471;52.150;4.508;2023-04-28T08:06:12;100744.06;;;11.54;75.79
72465;BME280;60471;52.150;4.508;2023-04-28T08:08:39;100742.28;;;11.54;76.51
72465;BME280;60471;52.150;4.508;2023-04-28T08:11:05;100731.91;;;11.67;76.65
72465;BME280;60471;52.150;4.508;2023-04-28T08:13:32;100736.06;;;11.71;76.48
72465;BME280;60471;52.150;4.508;2023-04-28T08:15:59;100739.91;;;11.66;77.40
72465;BME280;60471;52.150;4.508;2023-04-28T08:18:26;100747.94;;;11.64;77.52
72465;BME280;60471;52.150;4.508;2023-04-28T08:20:53;100739.81;;;11.67;78.01
72465;BME280;60471;52.150;4.508;2023-04-28T08:23:22;100741.44;;;11.70;77.96
72465;BME280;60471;52.150;4.508;2023-04-28T08:25:53;100736.91;;;12.05;77.59
72465;BME280;60471;52.150;4.508;2023-04-28T08:28:19;100732.28;;;12.24;77.19
72465;BME280;60471;52.150;4.508;2023-04-28T08:30:45;100730.72;;;12.36;77.49
72465;BME280;60471;52.150;4.508;2023-04-28T08:33:11;100726.56;;;12.32;77.66
72465;BME280;60471;52.150;4.508;2023-04-28T08:35:38;100736.81;;;12.22;78.72
72465;BME280;60471;52.150;4.508;2023-04-28T08:38:05;100733.47;;;12.50;78.26
72465;BME280;60471;52.150;4.508;2023-04-28T08:40:33;100728.59;;;12.42;79.01
72465;BME280;60471;52.150;4.508;2023-04-28T08:42:59;100721.84;;;12.53;78.76
72465;BME280;60471;52.150;4.508;2023-04-28T08:45:27;100723.44;;;12.55;78.94
72465;BME280;60471;52.150;4.508;2023-04-28T08:47:56;100725.78;;;12.45;79.63
72465;BME280;60471;52.150;4.508;2023-04-28T08:50:24;100724.13;;;12.59;79.51
72465;BME280;60471;52.150;4.508;2023-04-28T08:52:55;100726.28;;;12.52;79.90
72465;BME280;60471;52.150;4.508;2023-04-28T08:55:22;100725.16;;;12.56;80.81
72465;BME280;60471;52.150;4.508;2023-04-28T08:57:50;100721.41;;;12.60;80.80
72465;BME280;60471;52.150;4.508;2023-04-28T09:00:17;100719.28;;;12.51;81.56
72465;BME280;60471;52.150;4.508;2023-04-28T09:02:43;100721.22;;;12.63;81.40
72465;BME280;60471;52.150;4.508;2023-04-28T09:05:10;100723.34;;;12.57;82.25
72465;BME280;60471;52.150;4.508;2023-04-28T09:07:38;100716.25;;;12.73;82.15
72465;BME280;60471;52.150;4.508;2023-04-28T09:10:19;100715.00;;;12.78;82.41
72465;BME280;60471;52.150;4.508;2023-04-28T09:12:47;100715.22;;;12.90;81.53
72465;BME280;60471;52.150;4.508;2023-04-28T09:17:53;100704.59;;;13.05;82.08
72465;BME280;60471;52.150;4.508;2023-04-28T09:20:20;100705.88;;;13.28;81.64
72465;BME280;60471;52.150;4.508;2023-04-28T09:22:48;100703.41;;;13.40;81.12
72465;BME280;60471;52.150;4.508;2023-04-28T09:25:16;100707.38;;;13.32;81.49
72465;BME280;60471;52.150;4.508;2023-04-28T09:27:44;100702.81;;;13.34;81.63
72465;BME280;60471;52.150;4.508;2023-04-28T09:30:11;100705.09;;;13.41;81.82
72465;BME280;60471;52.150;4.508;2023-04-28T09:32:37;100701.97;;;13.34;81.94
72465;BME280;60471;52.150;4.508;2023-04-28T09:35:04;100703.69;;;13.49;81.53
72465;BME280;60471;52.150;4.508;2023-04-28T09:37:33;100699.72;;;13.42;81.76
72465;BME280;60471;52.150;4.508;2023-04-28T09:40:07;100703.22;;;13.71;81.28
72465;BME280;60471;52.150;4.508;2023-04-28T09:42:40;100702.03;;;13.75;80.56
72465;BME280;60471;52.150;4.508;2023-04-28T09:47:38;100704.25;;;13.54;82.28
72465;BME280;60471;52.150;4.508;2023-04-28T09:50:10;100699.41;;;13.75;81.34
72465;BME280;60471;52.150;4.508;2023-04-28T09:52:40;100699.78;;;13.83;81.17
72465;BME280;60471;52.150;4.508;2023-04-28T09:55:08;100704.16;;;13.70;81.58
72465;BME280;60471;52.150;4.508;2023-04-28T09:57:35;100702.31;;;13.85;81.84
72465;BME280;60471;52.150;4.508;2023-04-28T10:00:04;100707.53;;;13.86;81.25
72465;BME280;60471;52.150;4.508;2023-04-28T10:02:35;100717.19;;;14.02;81.06
72465;BME280;60471;52.150;4.508;2023-04-28T10:05:02;100701.25;;;14.02;81.21
72465;BME280;60471;52.150;4.508;2023-04-28T10:07:33;100717.84;;;13.91;81.18
72465;BME280;60471;52.150;4.508;2023-04-28T10:10:00;100727.38;;;14.08;81.22
72465;BME280;60471;52.150;4.508;2023-04-28T10:12:29;100705.88;;;13.98;81.14
72465;BME280;60471;52.150;4.508;2023-04-28T10:14:55;100713.50;;;13.90;82.27
72465;BME280;60471;52.150;4.508;2023-04-28T10:17:23;100708.56;;;13.84;83.04
72465;BME280;60471;52.150;4.508;2023-04-28T10:19:54;100707.16;;;13.92;82.90
72465;BME280;60471;52.150;4.508;2023-04-28T10:27:40;100717.97;;;13.75;84.36
72465;BME280;60471;52.150;4.508;2023-04-28T10:30:13;100726.19;;;13.85;84.70
72465;BME280;60471;52.150;4.508;2023-04-28T10:32:42;100728.75;;;14.01;84.02
72465;BME280;60471;52.150;4.508;2023-04-28T10:38:07;100723.19;;;13.62;86.34
72465;BME280;60471;52.150;4.508;2023-04-28T10:40:50;100730.47;;;13.45;87.76
72465;BME280;60471;52.150;4.508;2023-04-28T10:56:23;100740.03;;;13.33;88.07
72465;BME280;60471;52.150;4.508;2023-04-28T10:58:55;100738.03;;;13.22;88.59
72465;BME280;60471;52.150;4.508;2023-04-28T11:01:24;100732.28;;;13.30;88.50
72465;BME280;60471;52.150;4.508;2023-04-28T11:03:59;100733.66;;;13.21;88.79
72465;BME280;60471;52.150;4.508;2023-04-28T11:06:47;100739.19;;;13.32;88.75
72465;BME280;60471;52.150;4.508;2023-04-28T11:12:05;100719.78;;;13.60;87.56
72465;BME280;60471;52.150;4.508;2023-04-28T11:14:33;100725.81;;;13.91;86.24
72465;BME280;60471;52.150;4.508;2023-04-28T11:17:05;100725.13;;;13.87;85.66
72465;BME280;60471;52.150;4.508;2023-04-28T11:19:38;100727.25;;;13.54;86.72
72465;BME280;60471;52.150;4.508;2023-04-28T11:22:18;100738.91;;;13.37;87.73
72465;BME280;60471;52.150;4.508;2023-04-28T11:24:59;100738.22;;;13.33;87.87
72465;BME280;60471;52.150;4.508;2023-04-28T11:27:30;100737.75;;;13.41;88.03
72465;BME280;60471;52.150;4.508;2023-04-28T11:29:58;100736.25;;;13.37;87.78
72465;BME280;60471;52.150;4.508;2023-04-28T11:32:33;100742.06;;;13.14;89.19
72465;BME280;60471;52.150;4.508;2023-04-28T11:35:00;100740.91;;;13.48;88.31
72465;BME280;60471;52.150;4.508;2023-04-28T11:37:26;100738.50;;;13.43;87.97
72465;BME280;60471;52.150;4.508;2023-04-28T11:39:53;100731.25;;;13.47;88.10
72465;BME280;60471;52.150;4.508;2023-04-28T11:42:19;100736.72;;;13.72;87.70
72465;BME280;60471;52.150;4.508;2023-04-28T11:44:52;100743.25;;;13.81;86.48
72465;BME280;60471;52.150;4.508;2023-04-28T11:47:32;100747.13;;;13.75;86.21
72465;BME280;60471;52.150;4.508;2023-04-28T11:49:59;100749.69;;;13.62;86.71
72465;BME280;60471;52.150;4.508;2023-04-28T11:52:26;100752.53;;;13.74;87.00
72465;BME280;60471;52.150;4.508;2023-04-28T11:54:54;100754.25;;;13.75;86.35
72465;BME280;60471;52.150;4.508;2023-04-28T11:57:23;100743.88;;;13.99;86.30
72465;BME280;60471;52.150;4.508;2023-04-28T11:59:50;100762.41;;;13.57;87.61
72465;BME280;60471;52.150;4.508;2023-04-28T12:02:26;100751.69;;;13.73;86.90
72465;BME280;60471;52.150;4.508;2023-04-28T12:04:53;100740.59;;;13.81;86.45
72465;BME280;60471;52.150;4.508;2023-04-28T12:07:20;100752.16;;;13.66;86.16
72465;BME280;60471;52.150;4.508;2023-04-28T12:10:09;100763.44;;;13.69;87.11
72465;BME280;60471;52.150;4.508;2023-04-28T12:12:39;100750.72;;;13.46;88.61
72465;BME280;60471;52.150;4.508;2023-04-28T12:15:07;100773.38;;;13.51;88.25
72465;BME280;60471;52.150;4.508;2023-04-28T12:17:36;100786.72;;;13.78;87.26
72465;BME280;60471;52.150;4.508;2023-04-28T12:20:08;100757.25;;;13.54;87.79
72465;BME280;60471;52.150;4.508;2023-04-28T12:22:46;100758.03;;;13.56;89.52
72465;BME280;60471;52.150;4.508;2023-04-28T12:25:18;100748.38;;;13.70;88.55
72465;BME280;60471;52.150;4.508;2023-04-28T12:30:30;100764.16;;;14.14;86.26
72465;BME280;60471;52.150;4.508;2023-04-28T12:32:57;100759.97;;;14.10;86.06
72465;BME280;60471;52.150;4.508;2023-04-28T12:35:24;100757.44;;;13.94;86.50
72465;BME280;60471;52.150;4.508;2023-04-28T12:37:52;100772.03;;;13.87;87.31
72465;BME280;60471;52.150;4.508;2023-04-28T12:40:20;100780.66;;;13.90;87.12
72465;BME280;60471;52.150;4.508;2023-04-28T12:42:47;100770.06;;;13.62;87.49
72465;BME280;60471;52.150;4.508;2023-04-28T12:45:14;100771.19;;;13.72;87.05
72465;BME280;60471;52.150;4.508;2023-04-28T12:47:41;100768.78;;;14.10;85.73
72465;BME280;60471;52.150;4.508;2023-04-28T12:50:08;100766.97;;;14.11;85.20
72465;BME280;60471;52.150;4.508;2023-04-28T12:52:34;100779.53;;;13.95;85.28
72465;BME280;60471;52.150;4.508;2023-04-28T12:55:02;100805.38;;;13.77;86.05
72465;BME280;60471;52.150;4.508;2023-04-28T12:57:29;100788.25;;;13.82;86.05
72465;BME280;60471;52.150;4.508;2023-04-28T12:59:56;100767.66;;;14.14;84.71
72465;BME280;60471;52.150;4.508;2023-04-28T13:02:22;100799.22;;;14.05;85.24
72465;BME280;60471;52.150;4.508;2023-04-28T13:04:49;100786.06;;;14.03;85.47
72465;BME280;60471;52.150;4.508;2023-04-28T13:07:16;100779.78;;;14.04;85.51
72465;BME280;60471;52.150;4.508;2023-04-28T13:09:43;100786.72;;;13.78;86.42
72465;BME280;60471;52.150;4.508;2023-04-28T13:12:10;100786.81;;;13.91;85.38
72465;BME280;60471;52.150;4.508;2023-04-28T13:14:39;100793.28;;;14.28;84.23
72465;BME280;60471;52.150;4.508;2023-04-28T13:17:05;100808.41;;;14.13;84.04
72465;BME280;60471;52.150;4.508;2023-04-28T13:19:32;100792.31;;;14.43;83.17
72465;BME280;60471;52.150;4.508;2023-04-28T13:21:59;100803.03;;;14.56;81.59